Time;durP1;ratioP1;P1;durP2;ratioP2;P2;SDS_P1;SDS_P2;PMS_P1;PMS_P2;Temp;Humidity;BMP_temperature;BMP_pressure;BME280_temperature;BME280_humidity;BME280_pressure;Samples;Min_cycle;Max_cycle;Signal;HPM_P1;HPM_P2
2022/03/13 00:00:59;;;;;;;8.63;5.33;;;1.20;99.90;;;;;;4946434;28;20290;-76
2022/03/13 00:03:26;;;;;;;9.30;5.77;;;1.10;99.90;;;;;;4978099;28;20525;-75
2022/03/13 00:05:53;;;;;;;8.40;5.20;;;1.00;99.90;;;;;;4978389;28;20181;-76
2022/03/13 00:08:26;;;;;;;8.03;5.30;;;1.00;99.90;;;;;;4962406;28;20223;-76
2022/03/13 00:11:17;;;;;;;9.37;5.10;;;1.00;99.90;;;;;;4977985;28;20192;-76
2022/03/13 00:13:51;;;;;;;8.90;5.90;;;1.00;99.90;;;;;;4977971;28;20187;-76
2022/03/13 00:16:17;;;;;;;8.90;5.60;;;1.20;99.90;;;;;;4978028;28;20163;-76
2022/03/13 00:18:47;;;;;;;7.60;5.60;;;1.10;99.90;;;;;;4961655;28;20202;-75
2022/03/13 00:21:14;;;;;;;10.83;5.43;;;1.10;99.90;;;;;;4963054;28;20163;-76
2022/03/13 00:23:42;;;;;;;8.63;6.17;;;1.10;99.90;;;;;;4977653;28;20175;-76
2022/03/13 00:26:08;;;;;;;13.33;7.03;;;1.10;99.90;;;;;;4977810;28;20673;-76
2022/03/13 00:28:36;;;;;;;16.43;10.03;;;1.00;99.90;;;;;;4977704;28;20640;-76
2022/03/13 00:31:02;;;;;;;11.87;7.53;;;0.90;99.90;;;;;;4961737;28;20512;-76
2022/03/13 00:33:28;;;;;;;12.33;7.03;;;0.90;99.90;;;;;;4961532;28;20220;-76
2022/03/13 00:35:54;;;;;;;9.03;6.83;;;0.70;99.90;;;;;;4961375;28;20274;-75
2022/03/13 00:38:19;;;;;;;12.17;7.87;;;0.90;99.90;;;;;;4961713;28;20184;-75
2022/03/13 00:40:51;;;;;;;9.43;6.27;;;1.00;99.90;;;;;;4977505;28;20223;-75
2022/03/13 00:43:19;;;;;;;12.83;7.70;;;0.80;99.90;;;;;;4946730;28;20242;-75
2022/03/13 00:45:44;;;;;;;11.63;7.63;;;0.80;99.90;;;;;;4977258;28;20231;-75
2022/03/13 00:48:10;;;;;;;10.33;7.20;;;0.80;99.90;;;;;;4994911;28;20445;-76
2022/03/13 00:50:36;;;;;;;11.47;7.13;;;0.80;99.90;;;;;;4977415;28;20210;-76
2022/03/13 00:53:02;;;;;;;12.97;8.20;;;0.60;99.90;;;;;;4961319;28;20168;-76
2022/03/13 00:55:28;;;;;;;11.23;7.57;;;0.50;99.90;;;;;;4961371;28;20176;-75
2022/03/13 00:57:54;;;;;;;12.80;7.67;;;0.60;99.90;;;;;;4945348;28;20660;-75
2022/03/13 01:00:20;;;;;;;10.20;7.50;;;0.60;99.90;;;;;;4977003;28;20331;-75
2022/03/13 01:02:45;;;;;;;11.17;7.63;;;0.50;99.90;;;;;;4976925;28;20258;-75
2022/03/13 01:05:14;;;;;;;11.00;7.13;;;0.50;99.90;;;;;;4976854;28;20183;-76
2022/03/13 01:07:40;;;;;;;9.43;7.53;;;0.60;99.90;;;;;;4994435;28;20205;-76
2022/03/13 01:10:13;;;;;;;13.47;8.60;;;0.50;99.90;;;;;;4960469;28;20191;-75
2022/03/13 01:12:39;;;;;;;14.53;7.40;;;0.40;99.90;;;;;;4960828;28;20255;-76
2022/03/13 01:15:05;;;;;;;11.37;7.30;;;0.30;99.90;;;;;;4960407;28;20283;-76
2022/03/13 01:17:31;;;;;;;11.57;7.37;;;0.30;99.90;;;;;;4976630;28;20210;-76
2022/03/13 01:19:56;;;;;;;10.50;6.73;;;0.10;99.90;;;;;;4976708;28;20587;-75
2022/03/13 01:22:22;;;;;;;9.10;6.37;;;0.20;99.90;;;;;;4976562;28;20179;-75
2022/03/13 01:24:51;;;;;;;10.07;6.63;;;0.20;99.90;;;;;;4960863;28;20187;-75
2022/03/13 01:27:17;;;;;;;11.57;6.53;;;0.20;99.90;;;;;;4960915;28;20200;-75
2022/03/13 01:29:45;;;;;;;10.50;6.70;;;0.30;99.90;;;;;;4976726;28;20253;-75
2022/03/13 01:32:12;;;;;;;9.80;6.20;;;0.30;99.90;;;;;;4976486;28;20246;-75
2022/03/13 01:34:41;;;;;;;10.93;6.80;;;0.20;99.90;;;;;;4976701;28;20518;-76
2022/03/13 01:37:30;;;;;;;11.03;6.70;;;0.30;99.90;;;;;;4960581;28;20242;-76
2022/03/13 01:39:58;;;;;;;8.73;6.17;;;0.20;99.90;;;;;;4993868;28;20281;-75
2022/03/13 01:42:24;;;;;;;8.93;6.20;;;0.30;99.90;;;;;;4976967;28;20705;-75
2022/03/13 01:44:50;;;;;;;8.63;5.97;;;0.30;99.90;;;;;;4976371;28;20180;-75
2022/03/13 01:47:16;;;;;;;9.00;6.10;;;0.20;99.90;;;;;;4993539;28;20277;-75
2022/03/13 01:49:42;;;;;;;10.73;6.10;;;0.20;99.90;;;;;;4993519;28;20195;-76
2022/03/13 01:52:09;;;;;;;9.13;5.60;;;0.00;99.90;;;;;;4975950;28;20182;-75
2022/03/13 01:54:34;;;;;;;8.73;5.57;;;-0.10;99.90;;;;;;4975993;28;20183;-75
2022/03/13 01:57:01;;;;;;;10.20;5.50;;;0.00;99.90;;;;;;4960128;28;20189;-75
2022/03/13 01:59:29;;;;;;;7.50;5.20;;;0.10;99.90;;;;;;4976353;28;20289;-76
2022/03/13 02:01:56;;;;;;;8.27;5.17;;;0.20;99.90;;;;;;4975908;28;20210;-76
2022/03/13 02:04:28;;;;;;;8.73;5.90;;;0.30;99.90;;;;;;4960010;28;20193;-75
2022/03/13 02:06:55;;;;;;;8.40;6.00;;;0.10;99.90;;;;;;4959865;28;20230;-75
2022/03/13 02:09:25;;;;;;;7.67;5.50;;;0.00;99.90;;;;;;4959669;28;20207;-76
2022/03/13 02:11:51;;;;;;;8.67;5.40;;;0.00;99.90;;;;;;4975730;28;20182;-76
2022/03/13 02:14:21;;;;;;;11.70;5.67;;;0.10;99.90;;;;;;4960091;28;20178;-76
2022/03/13 02:16:48;;;;;;;6.87;4.90;;;0.00;99.90;;;;;;4976206;28;20168;-75
2022/03/13 02:19:15;;;;;;;9.03;5.40;;;0.00;99.90;;;;;;5017830;22;20276;-77
2022/03/13 02:21:48;;;;;;;8.23;5.50;;;0.00;99.90;;;;;;4944941;28;20180;-77
2022/03/13 02:24:23;;;;;;;7.27;5.17;;;0.00;99.90;;;;;;4946163;28;20556;-77
2022/03/13 02:27:03;;;;;;;7.30;5.30;;;0.10;99.90;;;;;;4960691;28;20218;-77
2022/03/13 02:29:30;;;;;;;8.67;5.40;;;0.20;99.90;;;;;;4960982;28;20266;-77
2022/03/13 02:32:00;;;;;;;10.63;6.23;;;0.20;99.90;;;;;;4960702;28;20188;-77
2022/03/13 02:34:26;;;;;;;12.37;7.10;;;0.30;99.90;;;;;;4976631;28;20200;-77
2022/03/13 02:37:02;;;;;;;11.33;6.60;;;0.40;99.90;;;;;;4960310;28;20184;-76
2022/03/13 02:39:33;;;;;;;11.00;7.00;;;0.30;99.90;;;;;;4960473;28;20202;-77
2022/03/13 02:41:58;;;;;;;10.53;7.03;;;0.30;99.90;;;;;;4993748;28;20168;-77
2022/03/13 02:44:24;;;;;;;10.30;6.63;;;0.20;99.90;;;;;;4960427;28;20194;-77
2022/03/13 02:46:57;;;;;;;9.87;6.03;;;0.10;99.90;;;;;;4944490;28;20294;-76
2022/03/13 02:49:25;;;;;;;10.63;6.30;;;0.00;99.90;;;;;;4959943;28;20200;-77
2022/03/13 02:51:53;;;;;;;9.17;6.07;;;-0.20;99.90;;;;;;4960287;28;20238;-77
2022/03/13 02:54:19;;;;;;;9.93;6.30;;;-0.30;99.90;;;;;;4976526;28;20183;-77
2022/03/13 02:56:46;;;;;;;9.93;6.10;;;-0.40;99.90;;;;;;4959907;28;20190;-77
2022/03/13 02:59:12;;;;;;;8.47;6.30;;;-0.50;99.90;;;;;;4960131;28;20183;-77
2022/03/13 03:01:39;;;;;;;8.00;5.50;;;-0.50;99.90;;;;;;4944113;28;20184;-77
2022/03/13 03:04:05;;;;;;;9.97;5.67;;;-0.60;99.90;;;;;;4960193;28;20757;-77
2022/03/13 03:06:32;;;;;;;8.13;5.70;;;-0.60;99.90;;;;;;4962936;28;20210;-77
2022/03/13 03:09:01;;;;;;;7.27;5.23;;;-0.60;99.90;;;;;;4979551;28;20237;-76
2022/03/13 03:11:27;;;;;;;8.37;5.70;;;-0.40;99.90;;;;;;4963918;28;20253;-77
2022/03/13 03:13:52;;;;;;;8.60;5.93;;;-0.50;99.90;;;;;;4979682;28;20261;-77
2022/03/13 03:16:18;;;;;;;7.57;5.63;;;-0.60;99.90;;;;;;4947517;28;20665;-76
2022/03/13 03:18:44;;;;;;;7.43;5.50;;;-0.60;99.90;;;;;;4979305;28;20260;-77
2022/03/13 03:21:11;;;;;;;8.57;5.50;;;-0.60;99.90;;;;;;4979184;28;20241;-77
2022/03/13 03:23:37;;;;;;;8.87;5.87;;;-0.60;99.90;;;;;;4979019;28;20680;-77
2022/03/13 03:26:05;;;;;;;8.00;5.33;;;-0.60;99.90;;;;;;4963537;28;20175;-76
2022/03/13 03:28:31;;;;;;;10.37;6.63;;;-0.60;99.90;;;;;;4963486;28;20187;-76
2022/03/13 03:30:59;;;;;;;9.07;6.33;;;-0.80;99.90;;;;;;4946813;28;20224;-76
2022/03/13 03:33:25;;;;;;;7.33;5.10;;;-0.80;99.90;;;;;;4962765;28;20186;-77
2022/03/13 03:35:50;;;;;;;9.00;5.27;;;-0.80;99.90;;;;;;4962973;28;20185;-77
2022/03/13 03:38:16;;;;;;;8.17;5.00;;;-1.00;99.90;;;;;;4946260;28;20185;-74
2022/03/13 03:40:42;;;;;;;9.13;5.60;;;-1.00;99.90;;;;;;4945996;28;20642;-75
2022/03/13 03:43:08;;;;;;;7.13;5.07;;;-1.00;99.90;;;;;;4961925;28;20235;-75
2022/03/13 03:45:33;;;;;;;8.17;5.23;;;-0.90;99.90;;;;;;4961937;28;20192;-75
2022/03/13 03:47:59;;;;;;;7.40;5.03;;;-0.80;99.90;;;;;;4961833;28;20244;-75
2022/03/13 03:50:25;;;;;;;9.27;5.63;;;-0.80;99.90;;;;;;4978143;28;20217;-74
2022/03/13 03:52:54;;;;;;;9.90;5.20;;;-0.70;99.90;;;;;;4977795;28;20174;-74
2022/03/13 03:55:20;;;;;;;8.17;5.30;;;-0.70;99.90;;;;;;4962368;28;20655;-75
2022/03/13 03:57:46;;;;;;;8.20;5.10;;;-0.70;99.90;;;;;;4977727;28;20196;-75
2022/03/13 04:00:12;;;;;;;9.73;6.00;;;-0.80;99.90;;;;;;4946066;28;20212;-75
2022/03/13 04:02:38;;;;;;;8.60;5.53;;;-0.80;99.90;;;;;;4945553;28;20194;-75
2022/03/13 04:05:05;;;;;;;8.57;5.47;;;-0.80;99.90;;;;;;4977662;28;20189;-75
2022/03/13 04:07:31;;;;;;;8.80;5.17;;;-0.70;99.90;;;;;;4946123;28;20220;-75
2022/03/13 04:09:57;;;;;;;9.03;5.60;;;-0.90;99.90;;;;;;4945743;28;20206;-75
2022/03/13 04:12:25;;;;;;;8.33;5.13;;;-0.70;99.90;;;;;;4961459;28;20193;-75
2022/03/13 04:14:52;;;;;;;8.70;5.53;;;-0.90;99.90;;;;;;4961934;28;20599;-75
2022/03/13 04:17:17;;;;;;;7.83;5.27;;;-0.80;99.90;;;;;;4976995;28;20191;-74
2022/03/13 04:19:44;;;;;;;9.13;5.60;;;-0.60;99.90;;;;;;4961516;28;20224;-75
2022/03/13 04:22:09;;;;;;;7.60;5.10;;;-0.60;99.90;;;;;;4977532;28;20669;-75
2022/03/13 04:24:35;;;;;;;7.43;5.37;;;-0.60;99.90;;;;;;4961385;28;20183;-75
2022/03/13 04:27:01;;;;;;;7.93;5.40;;;-0.70;99.90;;;;;;4945271;28;20210;-75
2022/03/13 04:29:26;;;;;;;8.67;5.57;;;-0.60;99.90;;;;;;4961099;28;20622;-74
2022/03/13 04:31:54;;;;;;;9.30;5.50;;;-0.60;99.90;;;;;;4944897;28;20190;-74
2022/03/13 04:34:20;;;;;;;7.90;5.20;;;-0.70;99.90;;;;;;4961527;28;20225;-75
2022/03/13 04:36:46;;;;;;;7.27;5.10;;;-0.80;99.90;;;;;;4961165;28;20183;-75
2022/03/13 04:39:12;;;;;;;8.60;5.73;;;-0.70;99.90;;;;;;4944906;28;20289;-75
2022/03/13 04:41:38;;;;;;;8.50;5.80;;;-0.80;99.90;;;;;;4960892;28;20518;-75
2022/03/13 04:44:06;;;;;;;9.87;5.90;;;-0.80;99.90;;;;;;4960854;28;20182;-74
2022/03/13 04:46:32;;;;;;;9.07;5.70;;;-0.90;99.90;;;;;;4961487;28;20702;-75
2022/03/13 04:48:58;;;;;;;8.53;5.67;;;-0.90;99.90;;;;;;4976882;28;20198;-74
2022/03/13 04:51:24;;;;;;;9.90;6.03;;;-0.90;99.90;;;;;;4960689;28;20213;-74
2022/03/13 04:53:50;;;;;;;9.37;6.13;;;-0.90;99.90;;;;;;4960827;28;20178;-75
2022/03/13 04:56:16;;;;;;;10.00;6.80;;;-0.90;99.90;;;;;;4976896;28;20171;-75
2022/03/13 04:58:42;;;;;;;8.43;5.47;;;-0.80;99.90;;;;;;4960627;28;20178;-75
2022/03/13 05:01:08;;;;;;;9.17;5.93;;;-0.90;99.90;;;;;;4976805;28;20194;-74
2022/03/13 05:03:34;;;;;;;8.70;5.93;;;-0.90;99.90;;;;;;4976723;28;20177;-74
2022/03/13 05:06:03;;;;;;;9.87;6.10;;;-0.90;99.90;;;;;;4976846;28;20173;-75
2022/03/13 05:08:29;;;;;;;9.40;6.27;;;-1.00;99.90;;;;;;4960786;28;20222;-74
2022/03/13 05:10:54;;;;;;;8.70;5.60;;;-1.10;99.90;;;;;;4960212;28;20193;-75
2022/03/13 05:13:22;;;;;;;10.63;5.80;;;-1.00;99.90;;;;;;4960286;28;20173;-75
2022/03/13 05:15:47;;;;;;;9.03;6.13;;;-1.10;99.90;;;;;;4945108;28;20265;-75
2022/03/13 05:18:13;;;;;;;9.27;6.00;;;-1.00;99.90;;;;;;4960374;28;20194;-75
2022/03/13 05:20:40;;;;;;;8.97;6.30;;;-0.90;99.90;;;;;;4960054;28;20215;-75
2022/03/13 05:23:09;;;;;;;11.03;5.90;;;-1.00;99.90;;;;;;4976487;28;20265;-74
2022/03/13 05:25:36;;;;;;;9.93;6.07;;;-1.00;99.90;;;;;;4944935;28;20179;-74
2022/03/13 05:28:02;;;;;;;9.03;6.10;;;-1.10;99.90;;;;;;4975530;28;20197;-74
2022/03/13 05:30:29;;;;;;;10.00;5.93;;;-1.10;99.90;;;;;;4960081;28;20202;-74
2022/03/13 05:32:55;;;;;;;9.80;5.43;;;-1.10;99.90;;;;;;4959740;28;20179;-76
2022/03/13 05:35:21;;;;;;;10.27;6.23;;;-1.20;99.90;;;;;;4976299;28;20568;-75
2022/03/13 05:37:47;;;;;;;8.20;5.90;;;-1.30;99.90;;;;;;4959887;28;20271;-75
2022/03/13 05:40:15;;;;;;;11.03;6.30;;;-1.30;99.90;;;;;;4943951;28;20284;-75
2022/03/13 05:42:44;;;;;;;11.10;6.70;;;-1.30;99.90;;;;;;4959805;28;20727;-75
2022/03/13 05:45:11;;;;;;;10.23;6.60;;;-1.10;99.90;;;;;;4944680;28;20175;-76
2022/03/13 05:48:07;;;;;;;9.97;6.50;;;-1.10;99.90;;;;;;4944091;28;20248;-75
2022/03/13 05:50:33;;;;;;;10.37;6.20;;;-1.10;99.90;;;;;;4973965;28;20688;-76
2022/03/13 05:52:59;;;;;;;8.73;5.60;;;-1.20;99.90;;;;;;4975622;28;20208;-75
2022/03/13 05:55:26;;;;;;;9.40;6.70;;;-1.10;99.90;;;;;;4943914;28;20182;-75
2022/03/13 05:57:54;;;;;;;11.37;7.07;;;-1.20;99.90;;;;;;4959953;28;20189;-75
2022/03/13 06:00:21;;;;;;;10.53;7.10;;;-1.30;99.90;;;;;;4959407;28;20205;-75
2022/03/13 06:02:47;;;;;;;10.83;6.77;;;-1.20;99.90;;;;;;4959717;28;20197;-75
2022/03/13 06:05:14;;;;;;;10.53;7.00;;;-1.10;99.90;;;;;;4959450;28;20197;-75
2022/03/13 06:07:40;;;;;;;12.57;7.97;;;-1.10;99.90;;;;;;4975505;28;20283;-75
2022/03/13 06:10:06;;;;;;;11.77;7.77;;;-1.10;99.90;;;;;;4975175;28;20683;-74
2022/03/13 06:12:33;;;;;;;13.10;7.67;;;-1.10;99.90;;;;;;4943682;28;20185;-74
2022/03/13 06:14:59;;;;;;;11.80;7.90;;;-1.20;99.90;;;;;;4959684;28;20177;-76
2022/03/13 06:17:26;;;;;;;9.23;6.17;;;-1.10;99.90;;;;;;4975388;28;20263;-75
2022/03/13 06:19:52;;;;;;;12.30;7.30;;;-0.60;99.90;;;;;;4959325;28;20217;-75
2022/03/13 06:22:19;;;;;;;11.53;7.40;;;-0.30;99.90;;;;;;4959075;28;20651;-74
2022/03/13 06:24:45;;;;;;;12.40;7.90;;;0.40;99.90;;;;;;4975732;28;20180;-74
2022/03/13 06:27:10;;;;;;;10.80;7.20;;;0.80;99.90;;;;;;4959213;28;20242;-74
2022/03/13 06:29:40;;;;;;;10.67;7.10;;;0.50;99.90;;;;;;4943311;28;20210;-75
2022/03/13 06:32:06;;;;;;;12.23;8.00;;;0.20;99.90;;;;;;4959072;28;20188;-75
2022/03/13 06:34:32;;;;;;;12.63;8.03;;;-0.20;99.90;;;;;;4975293;28;20174;-74
2022/03/13 06:36:58;;;;;;;13.70;8.83;;;-0.20;99.90;;;;;;4959102;28;20275;-75
2022/03/13 06:39:24;;;;;;;11.33;8.43;;;-0.30;99.90;;;;;;4976580;28;20596;-75
2022/03/13 06:41:51;;;;;;;17.30;8.87;;;-0.30;99.90;;;;;;4946905;28;20186;-75
2022/03/13 06:44:17;;;;;;;11.80;8.60;;;-0.30;99.90;;;;;;4979286;28;20179;-75
2022/03/13 06:46:43;;;;;;;13.50;8.37;;;-0.30;99.90;;;;;;4963148;28;20216;-75
2022/03/13 06:49:09;;;;;;;12.67;8.77;;;-0.40;99.90;;;;;;4978862;28;20187;-75
2022/03/13 06:51:37;;;;;;;13.90;8.10;;;-0.40;99.90;;;;;;4979087;28;20179;-76
2022/03/13 06:54:03;;;;;;;10.83;7.37;;;-0.40;99.90;;;;;;4978974;28;20179;-77
2022/03/13 06:56:29;;;;;;;12.00;8.30;;;-0.40;99.90;;;;;;4947052;28;20183;-75
2022/03/13 06:59:00;;;;;;;12.03;7.87;;;-0.40;99.90;;;;;;4962704;28;20232;-75
2022/03/13 07:01:26;;;;;;;12.40;7.73;;;-0.40;99.90;;;;;;4948037;28;20186;-76
2022/03/13 07:03:52;;;;;;;11.17;7.63;;;-0.30;99.90;;;;;;4962526;28;20549;-75
2022/03/13 07:06:17;;;;;;;11.20;6.93;;;-0.40;99.90;;;;;;4946898;28;20192;-75
2022/03/13 07:08:43;;;;;;;11.13;7.70;;;-0.30;99.90;;;;;;4946726;28;20182;-77
2022/03/13 07:11:08;;;;;;;11.87;7.77;;;-0.30;99.90;;;;;;4946490;28;20585;-75
2022/03/13 07:13:34;;;;;;;11.10;7.50;;;-0.30;99.90;;;;;;4946416;28;20208;-75
2022/03/13 07:16:02;;;;;;;10.47;7.20;;;-0.30;99.90;;;;;;4946598;28;20272;-74
2022/03/13 07:18:31;;;;;;;10.50;7.17;;;-0.30;99.90;;;;;;4962447;28;20193;-74
2022/03/13 07:20:57;;;;;;;9.87;7.27;;;-0.10;99.90;;;;;;4946812;28;20233;-74
2022/03/13 07:23:23;;;;;;;10.57;7.13;;;-0.10;99.90;;;;;;4962229;28;20185;-74
2022/03/13 07:25:51;;;;;;;12.50;6.90;;;0.00;99.90;;;;;;4962417;28;20193;-73
2022/03/13 07:28:17;;;;;;;12.50;7.93;;;0.10;99.90;;;;;;4978353;28;20215;-74
2022/03/13 07:30:44;;;;;;;10.57;7.10;;;0.10;99.90;;;;;;4946238;28;20213;-74
2022/03/13 07:33:10;;;;;;;11.30;7.50;;;0.30;99.90;;;;;;4962041;28;20190;-75
2022/03/13 07:35:37;;;;;;;11.23;7.23;;;0.40;99.90;;;;;;4978384;28;20258;-72
2022/03/13 07:38:03;;;;;;;11.07;7.40;;;0.60;99.90;;;;;;4978302;28;20187;-72
2022/03/13 07:40:29;;;;;;;12.50;7.97;;;0.70;99.90;;;;;;4977989;28;20273;-73
2022/03/13 07:42:55;;;;;;;9.93;6.97;;;0.70;99.90;;;;;;4977700;28;20645;-72
2022/03/13 07:45:21;;;;;;;11.67;7.00;;;0.90;99.90;;;;;;4977766;28;20596;-73
2022/03/13 07:47:46;;;;;;;11.40;8.17;;;1.00;99.90;;;;;;4962074;28;20211;-75
2022/03/13 07:50:12;;;;;;;12.57;8.07;;;1.10;99.90;;;;;;4945769;28;20208;-73
2022/03/13 07:52:38;;;;;;;12.77;7.93;;;1.20;99.90;;;;;;4961212;28;20183;-73
2022/03/13 07:55:04;;;;;;;11.07;7.73;;;1.40;99.90;;;;;;4962500;28;20179;-75
2022/03/13 07:57:30;;;;;;;12.43;7.00;;;1.50;99.90;;;;;;4947514;28;20271;-77
2022/03/13 07:59:55;;;;;;;12.70;6.87;;;1.70;99.90;;;;;;4962564;28;20298;-77
2022/03/13 08:02:22;;;;;;;10.47;7.00;;;2.00;99.90;;;;;;4976842;28;20195;-78
2022/03/13 08:04:47;;;;;;;10.03;7.03;;;2.20;99.90;;;;;;4936454;28;20271;-78
2022/03/13 08:07:13;;;;;;;10.47;6.70;;;2.30;99.90;;;;;;4945192;28;20635;-77
2022/03/13 08:09:39;;;;;;;9.27;6.50;;;2.50;99.90;;;;;;4955106;28;20196;-77
2022/03/13 08:12:05;;;;;;;11.27;7.07;;;2.60;99.90;;;;;;4928037;28;20263;-78
2022/03/13 08:14:31;;;;;;;11.60;6.90;;;2.80;99.90;;;;;;4959835;28;20196;-78
2022/03/13 08:16:57;;;;;;;10.53;6.63;;;2.90;99.90;;;;;;4944073;28;20196;-78
2022/03/13 08:19:23;;;;;;;10.40;6.93;;;3.20;99.90;;;;;;4943638;28;20232;-76
2022/03/13 08:21:49;;;;;;;10.07;6.97;;;3.40;99.90;;;;;;4958669;28;20177;-76
2022/03/13 08:24:15;;;;;;;9.97;6.77;;;3.50;99.90;;;;;;4942472;28;20180;-76
2022/03/13 08:26:42;;;;;;;9.40;6.70;;;3.70;99.90;;;;;;4959736;28;20208;-77
2022/03/13 08:29:08;;;;;;;9.00;6.40;;;3.80;99.90;;;;;;4961536;28;20634;-76
2022/03/13 08:31:35;;;;;;;10.13;6.70;;;4.00;99.90;;;;;;4961497;28;20188;-76
2022/03/13 08:34:07;;;;;;;9.60;6.83;;;4.20;99.90;;;;;;4961710;28;20660;-76
2022/03/13 08:36:35;;;;;;;8.23;6.20;;;4.30;99.90;;;;;;4977584;28;20231;-76
2022/03/13 08:39:00;;;;;;;9.53;6.27;;;4.50;99.90;;;;;;4962011;28;20235;-76
2022/03/13 08:41:26;;;;;;;9.33;6.43;;;4.70;99.90;;;;;;4978173;28;20174;-76
2022/03/13 08:43:52;;;;;;;8.13;6.17;;;4.80;99.90;;;;;;4945267;28;20181;-76
2022/03/13 08:46:18;;;;;;;9.73;6.57;;;5.00;99.90;;;;;;4945631;28;20185;-76
2022/03/13 08:48:44;;;;;;;11.37;6.50;;;5.20;99.90;;;;;;4960954;28;20214;-76
2022/03/13 08:51:12;;;;;;;8.50;6.30;;;5.40;99.90;;;;;;4960635;28;20286;-76
2022/03/13 08:53:37;;;;;;;8.80;6.20;;;5.60;99.90;;;;;;4945320;28;20211;-76
2022/03/13 08:56:03;;;;;;;7.70;6.10;;;5.80;99.90;;;;;;4960797;28;20202;-77
2022/03/13 08:58:29;;;;;;;9.13;6.23;;;6.00;99.90;;;;;;4976384;28;20217;-77
2022/03/13 09:00:56;;;;;;;10.93;6.87;;;6.20;99.90;;;;;;4944479;28;20203;-77
2022/03/13 09:03:21;;;;;;;10.07;5.97;;;6.40;99.00;;;;;;4944853;28;20187;-77
2022/03/13 09:05:48;;;;;;;9.00;6.30;;;6.50;97.70;;;;;;4944472;28;20183;-77
2022/03/13 09:08:15;;;;;;;8.83;6.50;;;6.70;97.50;;;;;;4944720;28;20235;-77
2022/03/13 09:10:41;;;;;;;8.80;6.47;;;6.90;96.30;;;;;;4944272;28;20203;-77
2022/03/13 09:13:06;;;;;;;8.13;6.13;;;6.90;95.40;;;;;;4960394;28;20195;-76
2022/03/13 09:15:32;;;;;;;7.90;6.20;;;7.10;93.80;;;;;;4944177;28;20643;-77
2022/03/13 09:18:02;;;;;;;9.70;5.90;;;7.30;92.50;;;;;;4944208;28;20647;-77
2022/03/13 09:20:28;;;;;;;8.50;5.80;;;7.50;92.90;;;;;;4960362;28;20226;-76
2022/03/13 09:22:53;;;;;;;9.77;5.80;;;7.70;90.50;;;;;;4974603;28;20303;-76
2022/03/13 09:25:20;;;;;;;9.03;5.37;;;8.00;89.90;;;;;;4976470;28;20266;-76
2022/03/13 09:27:46;;;;;;;6.93;5.10;;;8.10;83.40;;;;;;4960170;28;20203;-77
2022/03/13 09:30:12;;;;;;;7.43;4.83;;;8.30;85.10;;;;;;4976440;28;20197;-76
2022/03/13 09:32:37;;;;;;;7.33;5.13;;;8.40;68.00;;;;;;4960593;28;20177;-75
2022/03/13 09:35:04;;;;;;;7.57;4.90;;;8.50;68.60;;;;;;4960704;28;20235;-76
2022/03/13 09:37:30;;;;;;;6.03;4.50;;;8.80;71.00;;;;;;4960468;28;20189;-76
2022/03/13 09:39:56;;;;;;;6.23;4.53;;;9.00;62.30;;;;;;4935433;28;20298;-76
2022/03/13 09:42:22;;;;;;;6.27;4.43;;;9.10;61.60;;;;;;4927137;28;20179;-76
2022/03/13 09:44:47;;;;;;;6.47;4.67;;;9.20;61.40;;;;;;4942876;28;20179;-76
2022/03/13 09:47:13;;;;;;;5.90;4.70;;;9.30;61.50;;;;;;4942349;28;20613;-76
2022/03/13 09:49:41;;;;;;;6.43;4.77;;;9.50;63.30;;;;;;4943069;28;20315;-76
2022/03/13 09:52:08;;;;;;;6.97;4.47;;;9.60;59.10;;;;;;4944285;28;20184;-77
2022/03/13 09:54:34;;;;;;;7.23;5.07;;;9.70;59.00;;;;;;4963951;28;20175;-77
2022/03/13 09:57:04;;;;;;;6.50;4.90;;;9.80;58.60;;;;;;4959892;28;20192;-77
2022/03/13 09:59:30;;;;;;;6.13;4.77;;;9.80;56.00;;;;;;4975907;28;20196;-75
2022/03/13 10:01:56;;;;;;;7.17;4.93;;;9.90;56.40;;;;;;4959605;28;20249;-77
2022/03/13 10:04:22;;;;;;;7.00;4.77;;;10.10;55.90;;;;;;4975426;28;20580;-77
2022/03/13 10:07:07;;;;;;;7.27;4.80;;;10.20;55.40;;;;;;4959539;28;20225;-77
2022/03/13 10:09:33;;;;;;;6.63;4.90;;;10.30;54.90;;;;;;4976012;28;20206;-76
2022/03/13 10:12:11;;;;;;;7.23;5.17;;;10.60;56.50;;;;;;4977163;28;20285;-76
2022/03/13 10:14:53;;;;;;;7.97;5.37;;;10.80;56.50;;;;;;4943713;28;20174;-77
2022/03/13 10:17:33;;;;;;;7.73;5.07;;;11.00;56.00;;;;;;4975608;28;20179;-77
2022/03/13 10:20:22;;;;;;;6.13;4.93;;;10.90;53.80;;;;;;4959775;28;20213;-77
2022/03/13 10:22:54;;;;;;;6.80;5.03;;;10.80;54.10;;;;;;4975352;28;20183;-77
2022/03/13 10:25:31;;;;;;;7.70;5.43;;;11.00;54.40;;;;;;4975473;28;20219;-77
2022/03/13 10:28:19;;;;;;;7.63;5.20;;;11.30;54.40;;;;;;4959233;28;20298;-77
2022/03/13 10:30:47;;;;;;;7.60;5.37;;;11.60;55.00;;;;;;4975495;28;20194;-77
2022/03/13 10:33:13;;;;;;;7.47;5.50;;;11.80;53.80;;;;;;4974373;28;20206;-76
2022/03/13 10:35:39;;;;;;;7.57;5.20;;;11.80;52.40;;;;;;4951523;28;20207;-77
2022/03/13 10:38:35;;;;;;;10.20;5.67;;;12.10;56.80;;;;;;4940721;28;20184;-76
2022/03/13 10:41:03;;;;;;;7.80;5.50;;;12.10;52.30;;;;;;4936701;28;20204;-76
2022/03/13 10:43:29;;;;;;;7.60;5.77;;;11.70;51.00;;;;;;4940710;28;20184;-75
2022/03/13 10:45:56;;;;;;;7.77;5.30;;;11.70;52.20;;;;;;4925264;28;20191;-75
2022/03/13 10:48:27;;;;;;;7.63;5.30;;;11.60;51.40;;;;;;4957303;28;20291;-76
2022/03/13 10:50:54;;;;;;;9.03;5.93;;;11.80;51.40;;;;;;4943128;28;20196;-76
2022/03/13 10:53:21;;;;;;;6.87;5.10;;;12.00;51.30;;;;;;4973263;28;20180;-74
2022/03/13 10:56:11;;;;;;;8.33;5.57;;;12.30;52.40;;;;;;4959795;28;20168;-75
2022/03/13 10:58:46;;;;;;;6.80;5.50;;;12.40;50.90;;;;;;4942265;28;20176;-75
2022/03/13 11:01:16;;;;;;;7.27;5.60;;;12.50;49.70;;;;;;4941500;28;20200;-74
2022/03/13 11:03:56;;;;;;;6.77;5.20;;;12.70;49.90;;;;;;4957433;28;20181;-74
2022/03/13 11:06:26;;;;;;;6.37;5.40;;;12.80;48.80;;;;;;4926482;28;20184;-77
2022/03/13 11:08:55;;;;;;;7.67;5.37;;;12.90;50.60;;;;;;4945338;28;20190;-75
2022/03/13 11:11:22;;;;;;;9.27;5.60;;;13.10;50.00;;;;;;4977253;28;20200;-76
2022/03/13 11:13:56;;;;;;;6.50;5.43;;;13.30;49.30;;;;;;4961837;28;20270;-78
2022/03/13 11:16:30;;;;;;;7.00;5.50;;;13.70;49.90;;;;;;4976967;28;20634;-76
2022/03/13 11:19:01;;;;;;;6.80;5.70;;;13.70;49.00;;;;;;4960096;28;20184;-77
2022/03/13 11:21:27;;;;;;;6.43;5.03;;;13.80;81.20;;;;;;4975206;28;20195;-76
2022/03/13 11:23:53;;;;;;;7.73;5.80;;;14.20;53.40;;;;;;4975665;28;20180;-76
2022/03/13 11:26:22;;;;;;;8.30;5.87;;;13.90;50.40;;;;;;4959121;28;20250;-76
2022/03/13 11:28:49;;;;;;;7.87;5.93;;;13.90;50.70;;;;;;4947517;28;20286;-76
2022/03/13 11:31:44;;;;;;;7.80;5.60;;;13.90;52.60;;;;;;4963191;28;20196;-75
2022/03/13 11:34:16;;;;;;;6.90;5.50;;;13.90;49.30;;;;;;4942531;28;20195;-74
2022/03/13 11:36:49;;;;;;;8.67;5.93;;;14.10;50.10;;;;;;4963680;28;20219;-74
2022/03/13 11:39:30;;;;;;;9.10;5.93;;;14.40;48.10;;;;;;4979695;28;20168;-74
2022/03/13 11:41:57;;;;;;;7.80;5.97;;;14.40;48.70;;;;;;4959072;28;20267;-74
2022/03/13 11:44:28;;;;;;;7.00;5.80;;;14.60;48.60;;;;;;4942968;28;20180;-74
2022/03/13 11:46:55;;;;;;;6.77;5.80;;;14.80;47.40;;;;;;4976280;28;20192;-74
2022/03/13 11:49:26;;;;;;;8.57;6.07;;;15.00;46.70;;;;;;4946234;28;20212;-74
2022/03/13 11:52:12;;;;;;;8.00;6.00;;;14.90;46.70;;;;;;4977211;28;20215;-74
2022/03/13 11:54:53;;;;;;;7.87;5.97;;;14.70;46.20;;;;;;4947511;28;20674;-74
2022/03/13 11:57:20;;;;;;;8.87;6.00;;;14.80;48.70;;;;;;4976149;28;20171;-74
2022/03/13 12:00:06;;;;;;;8.27;5.83;;;15.10;47.00;;;;;;4975581;28;20204;-74
2022/03/13 12:02:41;;;;;;;8.80;6.07;;;15.20;45.90;;;;;;4975642;28;20187;-74
2022/03/13 12:05:25;;;;;;;7.47;6.10;;;15.20;45.40;;;;;;4979680;28;20243;-74
2022/03/13 12:07:54;;;;;;;7.87;6.13;;;15.50;48.50;;;;;;4958957;28;20211;-75
2022/03/13 12:10:41;;;;;;;8.27;6.40;;;15.80;46.90;;;;;;4959976;28;20193;-74
2022/03/13 12:13:07;;;;;;;8.00;6.03;;;15.70;44.40;;;;;;4945908;28;20192;-74
2022/03/13 12:15:34;;;;;;;7.17;6.27;;;15.40;44.80;;;;;;4943448;28;20195;-74
2022/03/13 12:18:13;;;;;;;9.50;6.40;;;15.50;46.30;;;;;;4942935;28;20280;-74
2022/03/13 12:20:39;;;;;;;9.33;6.27;;;15.70;46.00;;;;;;4958753;28;20212;-74
2022/03/13 12:23:05;;;;;;;8.10;6.30;;;16.20;46.40;;;;;;4926929;28;20677;-75
2022/03/13 12:25:31;;;;;;;9.83;6.60;;;16.40;45.00;;;;;;4943123;28;20220;-75
2022/03/13 12:27:57;;;;;;;6.93;6.10;;;16.20;43.80;;;;;;4927470;28;20745;-74
2022/03/13 12:30:29;;;;;;;9.57;6.30;;;16.20;43.70;;;;;;4958672;28;20196;-74
2022/03/13 12:33:03;;;;;;;9.73;6.50;;;16.30;43.00;;;;;;4926992;28;20320;-74
2022/03/13 12:35:29;;;;;;;8.73;6.27;;;16.00;44.50;;;;;;4944176;28;20176;-75
2022/03/13 12:38:04;;;;;;;8.97;6.60;;;16.20;43.20;;;;;;4961812;28;20275;-76
2022/03/13 12:40:31;;;;;;;9.53;6.63;;;15.50;42.70;;;;;;4937913;28;20662;-75
2022/03/13 12:42:59;;;;;;;7.80;6.17;;;16.00;45.30;;;;;;4948294;28;20240;-75
2022/03/13 12:45:26;;;;;;;8.00;6.30;;;16.60;44.40;;;;;;4949757;28;20176;-75
2022/03/13 12:47:55;;;;;;;7.83;6.00;;;17.10;42.80;;;;;;4944481;28;20210;-76
2022/03/13 12:50:25;;;;;;;8.67;6.43;;;17.20;41.30;;;;;;4947987;28;20196;-75
2022/03/13 12:53:02;;;;;;;6.97;5.80;;;17.20;40.40;;;;;;4947082;28;20174;-75